sensor_id;sensor_type;location;lat;lon;timestamp;P1;durP1;ratioP1;P2;durP2;ratioP2
48873;SDS011;66155;46.204;5.220;2024-03-06T00:02:48;6.80;;;4.88;;
48873;SDS011;66155;46.204;5.220;2024-03-06T00:07:48;6.28;;;4.25;;
48873;SDS011;66155;46.204;5.220;2024-03-06T00:12:48;4.87;;;3.67;;
48873;SDS011;66155;46.204;5.220;2024-03-06T00:17:49;5.38;;;4.00;;
48873;SDS011;66155;46.204;5.220;2024-03-06T00:22:49;6.28;;;4.45;;
48873;SDS011;66155;46.204;5.220;2024-03-06T00:27:49;6.28;;;3.75;;
48873;SDS011;66155;46.204;5.220;2024-03-06T00:32:50;5.60;;;4.50;;
48873;SDS011;66155;46.204;5.220;2024-03-06T00:37:51;7.03;;;3.92;;
48873;SDS011;66155;46.204;5.220;2024-03-06T00:42:53;5.85;;;3.95;;
48873;SDS011;66155;46.204;5.220;2024-03-06T00:47:53;5.45;;;3.88;;
48873;SDS011;66155;46.204;5.220;2024-03-06T00:52:53;5.33;;;3.50;;
48873;SDS011;66155;46.204;5.220;2024-03-06T00:57:54;5.10;;;3.20;;
48873;SDS011;66155;46.204;5.220;2024-03-06T01:02:54;6.15;;;3.20;;
48873;SDS011;66155;46.204;5.220;2024-03-06T01:07:54;3.33;;;2.72;;
48873;SDS011;66155;46.204;5.220;2024-03-06T03:05:54;5.27;;;3.77;;
48873;SDS011;66155;46.204;5.220;2024-03-06T03:10:54;4.05;;;3.60;;
48873;SDS011;66155;46.204;5.220;2024-03-06T03:39:43;3.85;;;3.22;;
48873;SDS011;66155;46.204;5.220;2024-03-06T03:44:44;4.00;;;3.53;;
48873;SDS011;66155;46.204;5.220;2024-03-06T03:49:44;5.63;;;3.27;;
48873;SDS011;66155;46.204;5.220;2024-03-06T03:54:44;8.02;;;4.38;;
48873;SDS011;66155;46.204;5.220;2024-03-06T03:59:45;4.28;;;3.30;;
48873;SDS011;66155;46.204;5.220;2024-03-06T04:04:46;3.53;;;3.17;;
48873;SDS011;66155;46.204;5.220;2024-03-06T04:09:46;7.38;;;3.88;;
48873;SDS011;66155;46.204;5.220;2024-03-06T04:14:47;4.43;;;3.20;;
48873;SDS011;66155;46.204;5.220;2024-03-06T04:19:47;5.60;;;3.80;;
48873;SDS011;66155;46.204;5.220;2024-03-06T04:24:48;5.38;;;3.80;;
48873;SDS011;66155;46.204;5.220;2024-03-06T04:29:48;4.00;;;3.30;;
48873;SDS011;66155;46.204;5.220;2024-03-06T04:34:49;3.50;;;3.17;;
48873;SDS011;66155;46.204;5.220;2024-03-06T04:39:49;3.90;;;3.50;;
48873;SDS011;66155;46.204;5.220;2024-03-06T04:44:50;4.00;;;3.60;;
48873;SDS011;66155;46.204;5.220;2024-03-06T04:49:50;3.63;;;3.33;;
48873;SDS011;66155;46.204;5.220;2024-03-06T04:54:50;3.90;;;3.57;;
48873;SDS011;66155;46.204;5.220;2024-03-06T04:59:51;3.65;;;3.42;;
48873;SDS011;66155;46.204;5.220;2024-03-06T05:04:52;5.00;;;3.80;;
48873;SDS011;66155;46.204;5.220;2024-03-06T05:09:52;5.38;;;4.13;;
48873;SDS011;66155;46.204;5.220;2024-03-06T05:14:53;4.53;;;4.07;;
48873;SDS011;66155;46.204;5.220;2024-03-06T05:19:55;4.50;;;4.10;;
48873;SDS011;66155;46.204;5.220;2024-03-06T05:24:55;4.27;;;3.87;;
48873;SDS011;66155;46.204;5.220;2024-03-06T05:29:55;4.07;;;3.67;;
48873;SDS011;66155;46.204;5.220;2024-03-06T05:34:56;4.65;;;3.80;;
48873;SDS011;66155;46.204;5.220;2024-03-06T05:39:58;9.18;;;3.50;;
48873;SDS011;66155;46.204;5.220;2024-03-06T05:44:58;4.85;;;3.78;;
48873;SDS011;66155;46.204;5.220;2024-03-06T05:50:05;5.68;;;5.15;;
48873;SDS011;66155;46.204;5.220;2024-03-06T05:55:06;4.00;;;3.60;;
48873;SDS011;66155;46.204;5.220;2024-03-06T06:00:07;4.75;;;4.35;;
48873;SDS011;66155;46.204;5.220;2024-03-06T06:05:11;6.30;;;5.85;;
48873;SDS011;66155;46.204;5.220;2024-03-06T06:10:11;4.38;;;3.95;;
48873;SDS011;66155;46.204;5.220;2024-03-06T06:15:12;4.13;;;3.72;;
48873;SDS011;66155;46.204;5.220;2024-03-06T06:20:12;4.65;;;3.55;;
48873;SDS011;66155;46.204;5.220;2024-03-06T06:25:16;4.30;;;3.78;;
48873;SDS011;66155;46.204;5.220;2024-03-06T06:30:16;6.97;;;3.83;;
48873;SDS011;66155;46.204;5.220;2024-03-06T06:35:17;4.40;;;4.00;;
48873;SDS011;66155;46.204;5.220;2024-03-06T06:40:17;4.35;;;3.95;;
48873;SDS011;66155;46.204;5.220;2024-03-06T06:45:20;4.90;;;4.18;;
48873;SDS011;66155;46.204;5.220;2024-03-06T06:50:21;5.43;;;4.47;;
48873;SDS011;66155;46.204;5.220;2024-03-06T06:55:25;5.82;;;4.82;;
48873;SDS011;66155;46.204;5.220;2024-03-06T07:00:26;5.15;;;4.60;;
48873;SDS011;66155;46.204;5.220;2024-03-06T07:05:28;5.00;;;4.60;;
48873;SDS011;66155;46.204;5.220;2024-03-06T07:10:28;5.63;;;4.77;;
48873;SDS011;66155;46.204;5.220;2024-03-06T07:15:29;5.10;;;4.60;;
48873;SDS011;66155;46.204;5.220;2024-03-06T07:20:29;5.93;;;5.00;;
48873;SDS011;66155;46.204;5.220;2024-03-06T07:25:31;5.75;;;4.80;;
48873;SDS011;66155;46.204;5.220;2024-03-06T07:30:32;4.43;;;4.03;;
48873;SDS011;66155;46.204;5.220;2024-03-06T07:35:32;5.57;;;3.80;;
48873;SDS011;66155;46.204;5.220;2024-03-06T07:40:32;5.47;;;3.85;;
48873;SDS011;66155;46.204;5.220;2024-03-06T07:45:33;5.00;;;3.72;;
48873;SDS011;66155;46.204;5.220;2024-03-06T07:50:33;5.37;;;4.03;;
48873;SDS011;66155;46.204;5.220;2024-03-06T07:55:33;7.55;;;4.18;;
48873;SDS011;66155;46.204;5.220;2024-03-06T08:00:34;4.65;;;4.25;;
48873;SDS011;66155;46.204;5.220;2024-03-06T08:05:34;4.60;;;3.95;;
48873;SDS011;66155;46.204;5.220;2024-03-06T08:10:35;3.88;;;3.47;;
48873;SDS011;66155;46.204;5.220;2024-03-06T08:15:35;5.07;;;4.03;;
48873;SDS011;66155;46.204;5.220;2024-03-06T08:20:35;6.97;;;5.10;;
48873;SDS011;66155;46.204;5.220;2024-03-06T08:25:36;5.47;;;4.47;;
48873;SDS011;66155;46.204;5.220;2024-03-06T08:30:36;6.17;;;4.20;;
48873;SDS011;66155;46.204;5.220;2024-03-06T08:35:37;4.18;;;3.88;;
48873;SDS011;66155;46.204;5.220;2024-03-06T08:40:37;3.92;;;3.42;;
48873;SDS011;66155;46.204;5.220;2024-03-06T08:45:38;4.70;;;3.88;;
48873;SDS011;66155;46.204;5.220;2024-03-06T08:50:39;3.78;;;3.40;;
48873;SDS011;66155;46.204;5.220;2024-03-06T08:55:39;10.55;;;3.55;;
48873;SDS011;66155;46.204;5.220;2024-03-06T09:00:39;4.97;;;3.60;;
48873;SDS011;66155;46.204;5.220;2024-03-06T09:05:40;3.65;;;3.30;;
48873;SDS011;66155;46.204;5.220;2024-03-06T09:10:40;3.60;;;3.40;;
48873;SDS011;66155;46.204;5.220;2024-03-06T09:15:41;3.43;;;2.90;;
48873;SDS011;66155;46.204;5.220;2024-03-06T09:20:41;3.80;;;3.40;;
48873;SDS011;66155;46.204;5.220;2024-03-06T09:25:41;3.50;;;3.20;;
48873;SDS011;66155;46.204;5.220;2024-03-06T09:30:43;4.78;;;3.40;;
48873;SDS011;66155;46.204;5.220;2024-03-06T09:35:43;7.35;;;3.30;;
48873;SDS011;66155;46.204;5.220;2024-03-06T09:40:45;4.85;;;3.45;;
48873;SDS011;66155;46.204;5.220;2024-03-06T09:45:47;3.55;;;3.00;;
48873;SDS011;66155;46.204;5.220;2024-03-06T09:50:49;3.10;;;2.85;;
48873;SDS011;66155;46.204;5.220;2024-03-06T09:55:52;3.90;;;2.85;;
48873;SDS011;66155;46.204;5.220;2024-03-06T10:00:53;4.43;;;2.38;;
48873;SDS011;66155;46.204;5.220;2024-03-06T10:05:56;3.63;;;3.33;;
48873;SDS011;66155;46.204;5.220;2024-03-06T10:10:57;4.47;;;2.55;;
48873;SDS011;66155;46.204;5.220;2024-03-06T10:15:57;4.28;;;2.83;;
48873;SDS011;66155;46.204;5.220;2024-03-06T10:20:59;3.22;;;2.70;;
48873;SDS011;66155;46.204;5.220;2024-03-06T10:26:01;5.03;;;3.58;;
48873;SDS011;66155;46.204;5.220;2024-03-06T10:31:04;3.00;;;2.80;;
48873;SDS011;66155;46.204;5.220;2024-03-06T10:36:09;3.90;;;3.00;;
48873;SDS011;66155;46.204;5.220;2024-03-06T10:41:11;4.03;;;2.80;;
48873;SDS011;66155;46.204;5.220;2024-03-06T10:46:14;4.47;;;3.10;;
48873;SDS011;66155;46.204;5.220;2024-03-06T10:51:19;3.28;;;2.95;;
48873;SDS011;66155;46.204;5.220;2024-03-06T10:56:22;3.78;;;2.70;;
48873;SDS011;66155;46.204;5.220;2024-03-06T11:01:23;5.28;;;2.60;;
48873;SDS011;66155;46.204;5.220;2024-03-06T11:06:25;6.20;;;3.00;;
48873;SDS011;66155;46.204;5.220;2024-03-06T11:11:26;3.63;;;3.10;;
48873;SDS011;66155;46.204;5.220;2024-03-06T11:16:27;2.88;;;2.60;;
48873;SDS011;66155;46.204;5.220;2024-03-06T11:26:35;5.53;;;3.43;;
48873;SDS011;66155;46.204;5.220;2024-03-06T11:31:35;4.32;;;2.55;;
48873;SDS011;66155;46.204;5.220;2024-03-06T11:36:36;4.45;;;2.88;;
48873;SDS011;66155;46.204;5.220;2024-03-06T11:51:54;5.55;;;3.53;;
48873;SDS011;66155;46.204;5.220;2024-03-06T11:56:56;3.45;;;3.22;;
48873;SDS011;66155;46.204;5.220;2024-03-06T12:01:59;4.20;;;2.90;;
48873;SDS011;66155;46.204;5.220;2024-03-06T12:07:04;5.28;;;3.20;;
48873;SDS011;66155;46.204;5.220;2024-03-06T12:12:06;10.68;;;3.20;;
48873;SDS011;66155;46.204;5.220;2024-03-06T12:17:10;7.35;;;3.20;;
48873;SDS011;66155;46.204;5.220;2024-03-06T12:22:13;4.00;;;3.60;;
48873;SDS011;66155;46.204;5.220;2024-03-06T12:27:15;5.55;;;3.17;;
48873;SDS011;66155;46.204;5.220;2024-03-06T12:32:22;3.38;;;2.70;;
48873;SDS011;66155;46.204;5.220;2024-03-06T12:37:30;3.53;;;3.00;;
48873;SDS011;66155;46.204;5.220;2024-03-06T12:42:34;5.32;;;4.75;;
48873;SDS011;66155;46.204;5.220;2024-03-06T12:47:34;3.10;;;2.80;;
48873;SDS011;66155;46.204;5.220;2024-03-06T12:52:34;4.18;;;3.00;;
48873;SDS011;66155;46.204;5.220;2024-03-06T12:57:35;3.27;;;2.67;;
48873;SDS011;66155;46.204;5.220;2024-03-06T13:02:35;3.60;;;3.30;;
48873;SDS011;66155;46.204;5.220;2024-03-06T13:07:36;3.70;;;3.20;;
48873;SDS011;66155;46.204;5.220;2024-03-06T13:12:37;5.07;;;3.67;;
48873;SDS011;66155;46.204;5.220;2024-03-06T13:17:38;3.58;;;3.20;;
48873;SDS011;66155;46.204;5.220;2024-03-06T13:22:39;3.67;;;3.33;;
48873;SDS011;66155;46.204;5.220;2024-03-06T13:27:40;3.53;;;3.22;;
48873;SDS011;66155;46.204;5.220;2024-03-06T13:32:40;5.13;;;3.53;;
48873;SDS011;66155;46.204;5.220;2024-03-06T13:37:43;4.03;;;3.70;;
48873;SDS011;66155;46.204;5.220;2024-03-06T13:42:43;5.78;;;4.00;;
48873;SDS011;66155;46.204;5.220;2024-03-06T13:47:44;4.57;;;4.20;;
48873;SDS011;66155;46.204;5.220;2024-03-06T13:52:45;4.65;;;4.32;;
48873;SDS011;66155;46.204;5.220;2024-03-06T13:57:45;3.80;;;3.50;;
48873;SDS011;66155;46.204;5.220;2024-03-06T14:02:47;4.53;;;3.50;;
48873;SDS011;66155;46.204;5.220;2024-03-06T14:07:47;4.55;;;3.55;;
48873;SDS011;66155;46.204;5.220;2024-03-06T14:12:49;4.30;;;3.90;;
48873;SDS011;66155;46.204;5.220;2024-03-06T14:17:52;4.05;;;3.53;;
48873;SDS011;66155;46.204;5.220;2024-03-06T14:22:56;6.40;;;4.50;;
48873;SDS011;66155;46.204;5.220;2024-03-06T14:27:56;4.32;;;3.10;;
48873;SDS011;66155;46.204;5.220;2024-03-06T14:32:57;4.03;;;3.30;;
48873;SDS011;66155;46.204;5.220;2024-03-06T14:37:57;8.70;;;4.67;;
48873;SDS011;66155;46.204;5.220;2024-03-06T14:42:58;4.35;;;3.10;;
48873;SDS011;66155;46.204;5.220;2024-03-06T14:47:58;7.87;;;7.13;;
48873;SDS011;66155;46.204;5.220;2024-03-06T14:52:59;7.63;;;4.78;;
48873;SDS011;66155;46.204;5.220;2024-03-06T14:57:59;4.30;;;3.88;;
48873;SDS011;66155;46.204;5.220;2024-03-06T15:03:00;4.18;;;3.20;;
48873;SDS011;66155;46.204;5.220;2024-03-06T15:08:01;2.90;;;2.80;;
48873;SDS011;66155;46.204;5.220;2024-03-06T15:13:04;7.53;;;7.07;;
48873;SDS011;66155;46.204;5.220;2024-03-06T15:18:04;4.45;;;3.15;;
48873;SDS011;66155;46.204;5.220;2024-03-06T15:23:05;4.32;;;3.35;;
48873;SDS011;66155;46.204;5.220;2024-03-06T15:28:05;3.77;;;3.47;;
48873;SDS011;66155;46.204;5.220;2024-03-06T15:33:06;4.57;;;4.32;;
48873;SDS011;66155;46.204;5.220;2024-03-06T15:38:07;4.60;;;3.47;;
48873;SDS011;66155;46.204;5.220;2024-03-06T15:43:07;4.18;;;2.47;;
48873;SDS011;66155;46.204;5.220;2024-03-06T15:48:08;5.70;;;3.47;;
48873;SDS011;66155;46.204;5.220;2024-03-06T15:53:13;3.10;;;2.83;;
48873;SDS011;66155;46.204;5.220;2024-03-06T15:58:14;3.67;;;3.43;;
48873;SDS011;66155;46.204;5.220;2024-03-06T16:03:14;4.00;;;3.70;;
48873;SDS011;66155;46.204;5.220;2024-03-06T16:08:14;4.00;;;3.70;;
48873;SDS011;66155;46.204;5.220;2024-03-06T16:13:15;5.30;;;3.60;;
48873;SDS011;66155;46.204;5.220;2024-03-06T16:18:15;5.43;;;4.87;;
48873;SDS011;66155;46.204;5.220;2024-03-06T16:23:17;5.93;;;3.55;;
48873;SDS011;66155;46.204;5.220;2024-03-06T16:28:18;4.82;;;3.92;;
48873;SDS011;66155;46.204;5.220;2024-03-06T16:33:19;4.20;;;3.67;;
48873;SDS011;66155;46.204;5.220;2024-03-06T16:38:20;4.25;;;3.30;;
48873;SDS011;66155;46.204;5.220;2024-03-06T16:43:20;6.95;;;3.67;;
48873;SDS011;66155;46.204;5.220;2024-03-06T16:48:20;5.28;;;3.45;;
48873;SDS011;66155;46.204;5.220;2024-03-06T16:53:21;4.45;;;3.97;;
48873;SDS011;66155;46.204;5.220;2024-03-06T16:58:21;3.67;;;3.28;;
48873;SDS011;66155;46.204;5.220;2024-03-06T17:03:22;4.03;;;3.30;;
48873;SDS011;66155;46.204;5.220;2024-03-06T17:08:22;3.65;;;3.20;;
48873;SDS011;66155;46.204;5.220;2024-03-06T17:13:22;3.47;;;3.00;;
48873;SDS011;66155;46.204;5.220;2024-03-06T17:18:23;5.37;;;3.30;;
48873;SDS011;66155;46.204;5.220;2024-03-06T17:23:23;7.57;;;3.50;;
48873;SDS011;66155;46.204;5.220;2024-03-06T17:28:24;9.07;;;4.47;;
48873;SDS011;66155;46.204;5.220;2024-03-06T17:33:24;6.50;;;4.38;;
48873;SDS011;66155;46.204;5.220;2024-03-06T17:38:24;6.10;;;3.70;;
48873;SDS011;66155;46.204;5.220;2024-03-06T17:43:26;9.48;;;4.35;;
48873;SDS011;66155;46.204;5.220;2024-03-06T17:48:26;5.40;;;4.07;;
48873;SDS011;66155;46.204;5.220;2024-03-06T17:53:27;7.10;;;3.85;;
48873;SDS011;66155;46.204;5.220;2024-03-06T17:58:27;6.15;;;4.10;;
48873;SDS011;66155;46.204;5.220;2024-03-06T18:03:27;7.45;;;4.50;;
48873;SDS011;66155;46.204;5.220;2024-03-06T18:08:28;8.40;;;4.00;;
48873;SDS011;66155;46.204;5.220;2024-03-06T18:13:29;4.32;;;3.60;;
48873;SDS011;66155;46.204;5.220;2024-03-06T18:18:29;7.20;;;4.18;;
48873;SDS011;66155;46.204;5.220;2024-03-06T18:23:30;7.00;;;4.63;;
48873;SDS011;66155;46.204;5.220;2024-03-06T18:28:30;7.18;;;4.22;;
48873;SDS011;66155;46.204;5.220;2024-03-06T18:33:31;9.43;;;4.50;;
48873;SDS011;66155;46.204;5.220;2024-03-06T18:38:31;6.60;;;4.40;;
48873;SDS011;66155;46.204;5.220;2024-03-06T18:43:33;9.98;;;4.53;;
48873;SDS011;66155;46.204;5.220;2024-03-06T18:48:33;8.50;;;4.60;;
48873;SDS011;66155;46.204;5.220;2024-03-06T18:53:34;8.18;;;4.93;;
48873;SDS011;66155;46.204;5.220;2024-03-06T18:58:35;6.30;;;4.30;;
48873;SDS011;66155;46.204;5.220;2024-03-06T19:03:36;7.03;;;4.53;;
48873;SDS011;66155;46.204;5.220;2024-03-06T19:08:37;7.68;;;4.75;;
48873;SDS011;66155;46.204;5.220;2024-03-06T19:13:38;9.60;;;4.97;;
48873;SDS011;66155;46.204;5.220;2024-03-06T19:18:38;8.40;;;5.35;;
48873;SDS011;66155;46.204;5.220;2024-03-06T19:23:39;9.00;;;5.40;;
48873;SDS011;66155;46.204;5.220;2024-03-06T19:28:39;10.77;;;4.73;;
48873;SDS011;66155;46.204;5.220;2024-03-06T19:33:39;8.02;;;5.20;;
48873;SDS011;66155;46.204;5.220;2024-03-06T19:38:40;6.03;;;4.80;;
48873;SDS011;66155;46.204;5.220;2024-03-06T19:43:40;7.70;;;4.97;;
48873;SDS011;66155;46.204;5.220;2024-03-06T19:48:44;6.05;;;4.47;;
48873;SDS011;66155;46.204;5.220;2024-03-06T19:53:44;5.47;;;4.80;;
48873;SDS011;66155;46.204;5.220;2024-03-06T19:58:45;6.28;;;4.88;;
48873;SDS011;66155;46.204;5.220;2024-03-06T20:03:46;8.07;;;4.60;;
48873;SDS011;66155;46.204;5.220;2024-03-06T20:08:46;7.47;;;4.95;;
48873;SDS011;66155;46.204;5.220;2024-03-06T20:13:47;7.72;;;4.43;;
48873;SDS011;66155;46.204;5.220;2024-03-06T20:18:47;5.50;;;4.40;;
48873;SDS011;66155;46.204;5.220;2024-03-06T20:23:48;6.57;;;4.57;;
48873;SDS011;66155;46.204;5.220;2024-03-06T20:28:49;6.75;;;4.13;;
48873;SDS011;66155;46.204;5.220;2024-03-06T20:33:51;6.28;;;4.30;;
48873;SDS011;66155;46.204;5.220;2024-03-06T20:38:53;8.52;;;4.63;;
48873;SDS011;66155;46.204;5.220;2024-03-06T20:43:55;10.60;;;6.18;;
48873;SDS011;66155;46.204;5.220;2024-03-06T20:48:55;9.13;;;5.97;;
48873;SDS011;66155;46.204;5.220;2024-03-06T20:53:57;9.82;;;5.47;;
48873;SDS011;66155;46.204;5.220;2024-03-06T20:58:59;9.02;;;5.85;;
48873;SDS011;66155;46.204;5.220;2024-03-06T21:03:59;8.18;;;5.65;;
48873;SDS011;66155;46.204;5.220;2024-03-06T21:09:00;9.52;;;5.63;;
48873;SDS011;66155;46.204;5.220;2024-03-06T21:14:00;10.63;;;5.57;;
48873;SDS011;66155;46.204;5.220;2024-03-06T21:19:03;8.55;;;5.55;;
48873;SDS011;66155;46.204;5.220;2024-03-06T21:24:03;7.38;;;5.07;;
48873;SDS011;66155;46.204;5.220;2024-03-06T21:29:04;9.10;;;4.65;;
48873;SDS011;66155;46.204;5.220;2024-03-06T21:34:04;12.65;;;4.80;;
48873;SDS011;66155;46.204;5.220;2024-03-06T21:39:05;7.18;;;5.28;;
48873;SDS011;66155;46.204;5.220;2024-03-06T21:44:08;8.77;;;4.97;;
48873;SDS011;66155;46.204;5.220;2024-03-06T21:49:08;8.48;;;5.20;;
48873;SDS011;66155;46.204;5.220;2024-03-06T21:54:09;12.03;;;5.37;;
48873;SDS011;66155;46.204;5.220;2024-03-06T21:59:09;7.97;;;5.50;;
48873;SDS011;66155;46.204;5.220;2024-03-06T22:04:09;11.57;;;5.63;;
48873;SDS011;66155;46.204;5.220;2024-03-06T22:09:14;17.73;;;7.18;;
48873;SDS011;66155;46.204;5.220;2024-03-06T22:14:14;14.20;;;6.97;;
48873;SDS011;66155;46.204;5.220;2024-03-06T22:19:16;14.85;;;7.25;;
48873;SDS011;66155;46.204;5.220;2024-03-06T22:24:18;15.75;;;6.47;;
48873;SDS011;66155;46.204;5.220;2024-03-06T22:29:21;9.35;;;6.45;;
48873;SDS011;66155;46.204;5.220;2024-03-06T22:34:21;11.45;;;5.97;;
48873;SDS011;66155;46.204;5.220;2024-03-06T22:39:21;13.20;;;6.93;;
48873;SDS011;66155;46.204;5.220;2024-03-06T22:44:22;10.83;;;5.97;;
48873;SDS011;66155;46.204;5.220;2024-03-06T22:49:22;14.90;;;6.65;;
48873;SDS011;66155;46.204;5.220;2024-03-06T22:54:22;13.82;;;6.78;;
48873;SDS011;66155;46.204;5.220;2024-03-06T22:59:23;12.98;;;5.90;;
48873;SDS011;66155;46.204;5.220;2024-03-06T23:04:24;12.50;;;5.47;;
48873;SDS011;66155;46.204;5.220;2024-03-06T23:09:24;10.88;;;6.53;;
48873;SDS011;66155;46.204;5.220;2024-03-06T23:14:25;9.65;;;6.05;;
48873;SDS011;66155;46.204;5.220;2024-03-06T23:19:25;13.10;;;6.93;;
48873;SDS011;66155;46.204;5.220;2024-03-06T23:24:26;11.13;;;6.50;;
48873;SDS011;66155;46.204;5.220;2024-03-06T23:29:26;13.10;;;6.32;;
48873;SDS011;66155;46.204;5.220;2024-03-06T23:34:27;11.77;;;5.43;;
48873;SDS011;66155;46.204;5.220;2024-03-06T23:39:27;12.90;;;6.15;;
48873;SDS011;66155;46.204;5.220;2024-03-06T23:44:28;13.02;;;6.05;;
48873;SDS011;66155;46.204;5.220;2024-03-06T23:49:28;10.65;;;5.85;;
48873;SDS011;66155;46.204;5.220;2024-03-06T23:54:28;14.47;;;6.50;;
48873;SDS011;66155;46.204;5.220;2024-03-06T23:59:29;15.77;;;6.45;;
